createdAt,value
2023-03-04T00:00:15.178Z,95475.00
2023-03-04T00:01:15.168Z,95477.00
2023-03-04T00:02:15.227Z,95475.00
2023-03-04T00:03:15.235Z,95473.00
2023-03-04T00:04:15.146Z,95475.00
2023-03-04T00:54:55.997Z,95475.00
2023-03-04T00:55:56.955Z,95471.00
2023-03-04T00:56:56.944Z,95473.00
2023-03-04T00:57:56.932Z,95473.00
2023-03-04T00:58:56.931Z,95471.00
2023-03-04T00:59:56.917Z,95471.00
2023-03-04T01:00:56.941Z,95471.00
2023-03-04T01:01:56.908Z,95471.00
2023-03-04T01:02:56.890Z,95470.00
2023-03-04T01:03:56.886Z,95468.00
2023-03-04T01:04:56.885Z,95471.00
2023-03-04T01:05:56.863Z,95470.00
2023-03-04T01:06:56.858Z,95471.00
2023-03-04T01:07:56.844Z,95470.00
2023-03-04T01:08:56.840Z,95470.00
2023-03-04T01:09:56.834Z,95470.00
2023-03-04T01:10:56.841Z,95468.00
2023-03-04T01:11:56.817Z,95466.00
2023-03-04T01:12:56.806Z,95466.00
2023-03-04T01:13:56.787Z,95468.00
2023-03-04T01:14:56.785Z,95468.00
2023-03-04T01:15:56.770Z,95468.00
2023-03-04T01:16:56.791Z,95466.00
2023-03-04T01:17:56.785Z,95466.00
2023-03-04T01:18:56.753Z,95466.00
2023-03-04T01:19:56.735Z,95464.00
2023-03-04T01:20:56.718Z,95464.00
2023-03-04T01:21:56.715Z,95462.00
2023-03-04T01:22:56.704Z,95466.00
2023-03-04T01:23:56.703Z,95462.00
2023-03-04T01:24:56.695Z,95460.00
2023-03-04T01:25:56.682Z,95460.00
2023-03-04T01:26:56.693Z,95462.00
2023-03-04T01:27:56.668Z,95460.00
2023-03-04T01:28:56.659Z,95462.00
2023-03-04T01:29:56.640Z,95462.00
2023-03-04T01:30:56.671Z,95460.00
2023-03-04T01:31:56.667Z,95460.00
2023-03-04T01:32:56.634Z,95460.00
2023-03-04T01:33:56.608Z,95462.00
2023-03-04T01:34:56.599Z,95458.00
2023-03-04T01:35:56.626Z,95456.00
2023-03-04T01:36:56.577Z,95456.00
2023-03-04T01:37:56.570Z,95458.00
2023-03-04T01:38:56.567Z,95454.00
2023-03-04T01:39:56.566Z,95452.00
2023-03-04T01:40:56.556Z,95452.00
2023-03-04T01:41:56.541Z,95450.00
2023-03-04T01:42:56.549Z,95450.00
2023-03-04T01:43:56.520Z,95448.00
2023-03-04T01:44:56.515Z,95452.00
2023-03-04T01:45:56.580Z,95448.00
2023-03-04T01:46:56.494Z,95448.00
2023-03-04T01:47:56.484Z,95448.00
2023-03-04T01:48:56.553Z,95446.00
2023-03-04T01:49:56.463Z,95446.00
2023-03-04T01:50:56.458Z,95444.00
2023-03-04T01:51:56.447Z,95444.00
2023-03-04T01:52:56.439Z,95442.00
2023-03-04T01:53:56.432Z,95440.00
2023-03-04T01:54:56.430Z,95442.00
2023-03-04T01:55:56.415Z,95440.00
2023-03-04T01:56:56.399Z,95440.00
2023-03-04T01:57:56.391Z,95440.00
2023-03-04T01:58:56.415Z,95440.00
2023-03-04T01:59:56.371Z,95436.00
2023-03-04T02:00:56.364Z,95436.00
2023-03-04T06:22:53.973Z,95438.00
2023-03-04T06:23:53.974Z,95438.00
2023-03-04T06:24:53.969Z,95440.00
2023-03-04T06:25:53.962Z,95444.00
2023-03-04T06:26:53.942Z,95444.00
2023-03-04T06:27:55.224Z,95444.00
2023-03-04T06:28:53.925Z,95442.00
2023-03-04T06:29:53.919Z,95444.00
2023-03-04T06:30:53.956Z,95444.00
2023-03-04T06:31:53.972Z,95444.00
2023-03-04T06:32:53.882Z,95444.00
2023-03-04T06:33:53.874Z,95446.00
2023-03-04T06:34:53.871Z,95446.00
2023-03-04T06:35:53.938Z,95448.00
2023-03-04T06:36:53.854Z,95448.00
2023-03-04T06:37:53.847Z,95446.00
2023-03-04T06:38:53.828Z,95450.00
2023-03-04T06:39:53.824Z,95448.00
2023-03-04T06:40:56.723Z,95448.00
2023-03-04T06:41:53.800Z,95448.00
2023-03-04T06:42:53.793Z,95450.00
2023-03-04T06:43:53.788Z,95446.00
2023-03-04T06:44:53.770Z,95450.00
2023-03-04T06:45:53.767Z,95450.00
2023-03-04T06:46:53.899Z,95454.00
2023-03-04T06:47:55.398Z,95450.00
2023-03-04T06:48:53.744Z,95456.00
2023-03-04T06:49:53.727Z,95450.00
2023-03-04T06:50:53.745Z,95450.00
2023-03-04T06:51:53.720Z,95448.00
2023-03-04T06:52:53.733Z,95452.00
2023-03-04T06:53:53.689Z,95452.00
2023-03-04T06:54:53.691Z,95456.00
2023-03-04T06:55:53.672Z,95456.00
2023-03-04T06:56:53.696Z,95456.00
2023-03-04T06:57:53.646Z,95452.00
2023-03-04T06:58:53.647Z,95452.00
2023-03-04T06:59:53.633Z,95458.00
2023-03-04T07:00:53.641Z,95456.00
2023-03-04T07:01:53.615Z,95458.00
2023-03-04T07:02:55.240Z,95466.00
2023-03-04T07:03:53.917Z,95458.00
2023-03-04T07:04:53.811Z,95464.00
2023-03-04T07:05:53.802Z,95460.00
2023-03-04T07:06:53.800Z,95462.00
2023-03-04T07:07:53.789Z,95466.00
2023-03-04T07:08:53.780Z,95466.00
2023-03-04T07:09:53.773Z,95470.00
2023-03-04T07:10:53.755Z,95466.00
2023-03-04T07:11:53.748Z,95468.00
2023-03-04T07:12:53.746Z,95470.00
2023-03-04T07:13:53.744Z,95466.00
2023-03-04T07:14:53.715Z,95466.00
2023-03-04T07:15:53.713Z,95462.00
2023-03-04T07:16:53.703Z,95464.00
2023-03-04T07:18:53.715Z,95468.00
2023-03-04T07:19:53.674Z,95471.00
2023-03-04T07:21:53.661Z,95475.00
2023-03-04T07:22:53.646Z,95471.00
2023-03-04T07:23:53.655Z,95477.00
2023-03-04T07:24:53.634Z,95475.00
2023-03-04T07:26:53.609Z,95475.00
2023-03-04T07:27:53.600Z,95477.00
2023-03-04T07:28:53.593Z,95477.00
2023-03-04T07:29:53.585Z,95479.00
2023-03-04T07:30:53.579Z,95477.00
2023-03-04T07:31:53.939Z,95477.00
2023-03-04T07:32:53.564Z,95477.00
2023-03-04T07:34:53.568Z,95481.00
